Main page
METAR-TAF:

METAR-TAF

Airports :

Santa Maria Airport

Aracaju, Sergipe, Brazil

latitude: 10-59S, longitude: 037-04W, elevation: 8 m

Current weather observation

The report was made 15 minutes ago, at 00:00 UTC
Wind 10 kt from the East/Northeast
Temperature 28°C
Humidity 74%
Pressure 1012 hPa
Visibility 10 km or more
Scattered clouds at a height of 1500 ft

METAR: SBAR 160000Z 07010KT 9999 SCT015 28/23 Q1012

Time: 21:15 (00:15 UTC)

Forecast

The report was made 2 hours and 15 minutes ago, at 22:00 UTC
Forecast valid from 16 at 00 UTC to 16 at 12 UTC
Wind 9 kt from the Northeast
Visibility: 9000 m
Scattered clouds at a height of 1500 ft

TAF: SBAR 152200Z 1600/1612 05009KT 9000 SCT015 TN26/1608Z TX29/1611Z RMK PEA

Weather observations and forecasts of more than 4000 airports (METAR and TAF reports).

The available stations are represented by yellow and red dots on the map.

Hover mouse over dot to see the name of the station.

Then click to see weather observations and forecasts.

To change the map : click on the green buttons with a black cross to zoom in, on the green button with a dash to zoom out, or on the green arrows for adjacent maps.


METAR-TAF: